Time;durP1;ratioP1;P1;durP2;ratioP2;P2;SDS_P1;SDS_P2;PMS_P1;PMS_P2;Temp;Humidity;BMP_temperature;BMP_pressure;BME280_temperature;BME280_humidity;BME280_pressure;Samples;Min_cycle;Max_cycle;Signal;HPM_P1;HPM_P2
2023/02/07 00:00:23;;;;;;;5.75;1.85;;;0.10;99.90;;;;;;5041863;28;20045;-68
2023/02/07 00:02:50;;;;;;;3.38;1.70;;;0.20;99.90;;;;;;5043624;28;20043;-68
2023/02/07 00:05:17;;;;;;;4.82;1.60;;;0.20;99.90;;;;;;5025038;28;20560;-64
2023/02/07 00:07:44;;;;;;;6.53;1.58;;;0.20;99.90;;;;;;5044789;28;20158;-65
2023/02/07 00:10:11;;;;;;;5.35;1.90;;;0.20;99.90;;;;;;5045557;28;20405;-69
2023/02/07 00:12:38;;;;;;;7.55;1.90;;;0.20;99.90;;;;;;5044961;28;20547;-65
2023/02/07 00:15:05;;;;;;;4.38;1.80;;;0.20;99.90;;;;;;5042151;28;20059;-65
2023/02/07 00:17:33;;;;;;;4.10;1.23;;;0.20;99.90;;;;;;5047632;28;20087;-72
2023/02/07 00:19:59;;;;;;;3.25;1.77;;;0.30;99.90;;;;;;5041577;28;20059;-67
2023/02/07 00:22:26;;;;;;;4.95;1.70;;;0.20;99.90;;;;;;5040286;28;20435;-64
2023/02/07 00:24:53;;;;;;;6.38;2.00;;;0.20;99.90;;;;;;5039386;28;20496;-69
2023/02/07 00:27:20;;;;;;;1.90;1.45;;;0.20;99.90;;;;;;5042037;28;20049;-65
2023/02/07 00:29:47;;;;;;;4.65;1.38;;;0.10;99.90;;;;;;5038547;28;20087;-70
2023/02/07 00:32:14;;;;;;;3.00;1.10;;;0.10;99.90;;;;;;5039663;28;20048;-70
2023/02/07 00:34:41;;;;;;;5.75;1.55;;;0.10;99.90;;;;;;5040454;28;20063;-66
2023/02/07 00:37:08;;;;;;;5.03;1.55;;;0.00;99.90;;;;;;5040986;28;20048;-70
2023/02/07 00:39:37;;;;;;;5.70;1.67;;;0.10;99.90;;;;;;5040377;28;20075;-67
2023/02/07 00:42:04;;;;;;;7.13;1.33;;;0.00;99.90;;;;;;5040251;28;20134;-65
2023/02/07 00:44:31;;;;;;;4.47;1.70;;;0.00;99.90;;;;;;5040616;28;20520;-70
2023/02/07 00:46:58;;;;;;;7.43;2.00;;;0.00;99.90;;;;;;5042225;28;20064;-67
2023/02/07 00:49:25;;;;;;;4.50;1.42;;;0.00;99.90;;;;;;5040572;28;20080;-66
2023/02/07 00:51:52;;;;;;;3.83;1.85;;;0.00;99.90;;;;;;5036524;28;20483;-70
2023/02/07 00:54:19;;;;;;;3.97;2.10;;;0.00;99.90;;;;;;5040953;28;20139;-67
2023/02/07 00:56:46;;;;;;;2.88;1.83;;;0.00;99.90;;;;;;5042577;28;20055;-72
2023/02/07 00:59:13;;;;;;;2.92;1.77;;;0.00;99.90;;;;;;5041368;28;20098;-71
2023/02/07 01:01:39;;;;;;;5.15;1.85;;;0.00;99.90;;;;;;5046258;28;20056;-67
2023/02/07 01:04:06;;;;;;;3.65;1.60;;;-0.10;99.90;;;;;;5040352;28;20079;-66
2023/02/07 01:06:35;;;;;;;3.25;1.50;;;-0.10;99.90;;;;;;5046952;28;20406;-65
2023/02/07 01:09:04;;;;;;;2.67;1.52;;;-0.10;99.90;;;;;;5046043;28;20068;-67
2023/02/07 01:11:32;;;;;;;6.20;1.63;;;-0.10;99.90;;;;;;5041738;28;20557;-64
2023/02/07 01:14:00;;;;;;;5.82;1.42;;;-0.10;99.90;;;;;;5036819;28;20161;-65
2023/02/07 01:16:30;;;;;;;4.57;1.70;;;0.00;99.90;;;;;;5043548;28;20049;-65
2023/02/07 01:19:00;;;;;;;2.58;1.63;;;0.10;99.90;;;;;;5041109;28;20041;-67
2023/02/07 01:21:27;;;;;;;;;;;0.10;99.90;;;;;;5040959;28;20049;-68
2023/02/07 01:23:55;;;;;;;5.00;1.67;;;0.20;99.90;;;;;;5040515;28;20560;-67
2023/02/07 01:26:26;;;;;;;3.00;1.25;;;0.50;99.90;;;;;;5043593;28;20656;-67
2023/02/07 01:28:54;;;;;;;6.20;1.40;;;0.80;99.90;;;;;;5043486;28;20148;-66
2023/02/07 01:31:21;;;;;;;6.35;1.48;;;0.90;99.90;;;;;;5045104;28;20076;-67
2023/02/07 01:33:56;;;;;;;2.00;0.90;;;1.00;99.90;;;;;;5038026;28;20046;-66
2023/02/07 01:36:25;;;;;;;3.13;1.70;;;1.20;99.90;;;;;;5037021;28;20434;-71
2023/02/07 01:38:53;;;;;;;5.28;2.22;;;1.20;99.90;;;;;;5036603;28;20136;-66
2023/02/07 01:41:21;;;;;;;4.10;1.30;;;1.30;99.90;;;;;;5041156;28;20131;-68
2023/02/07 01:43:58;;;;;;;3.78;0.98;;;1.20;99.90;;;;;;5038600;28;20124;-69
2023/02/07 01:46:26;;;;;;;2.58;0.90;;;1.30;99.90;;;;;;5042974;28;20059;-66
2023/02/07 01:48:56;;;;;;;5.82;1.35;;;1.30;99.90;;;;;;5044391;28;20052;-65
2023/02/07 01:51:24;;;;;;;9.63;1.30;;;1.30;99.90;;;;;;5035961;28;20147;-70
2023/02/07 01:53:55;;;;;;;4.13;1.52;;;1.30;99.90;;;;;;5040595;28;20048;-68
2023/02/07 01:56:23;;;;;;;3.33;1.73;;;1.40;99.90;;;;;;5040346;28;20168;-66
2023/02/07 01:59:03;;;;;;;2.55;1.17;;;1.40;99.90;;;;;;5034954;28;20041;-66
2023/02/07 02:01:30;;;;;;;5.78;1.50;;;1.40;99.90;;;;;;5041414;28;20048;-72
2023/02/07 02:03:57;;;;;;;6.70;1.25;;;1.50;99.90;;;;;;5037369;28;20145;-65
2023/02/07 02:06:26;;;;;;;4.93;2.10;;;1.50;99.90;;;;;;5039415;28;20052;-68
2023/02/07 02:08:58;;;;;;;4.28;1.23;;;1.50;99.90;;;;;;5043456;28;20554;-65
2023/02/07 02:11:25;;;;;;;2.55;1.23;;;1.60;99.90;;;;;;5041813;28;20045;-66
2023/02/07 02:13:58;;;;;;;2.88;1.52;;;1.60;99.90;;;;;;5041135;28;20045;-69
2023/02/07 02:16:46;;;;;;;3.92;0.90;;;1.60;99.90;;;;;;5041952;28;20051;-69
2023/02/07 02:19:44;;;;;;;5.45;0.70;;;1.70;99.90;;;;;;5038504;28;20045;-71
2023/02/07 02:22:29;;;;;;;2.78;2.17;;;1.70;99.90;;;;;;5038549;28;20060;-69
2023/02/07 02:24:56;;;;;;;3.08;1.13;;;1.70;99.90;;;;;;5041495;28;20079;-69
2023/02/07 02:27:48;;;;;;;3.55;1.15;;;1.70;99.90;;;;;;5039085;28;20067;-67
2023/02/07 02:30:39;;;;;;;4.57;1.20;;;1.70;99.90;;;;;;5040550;28;20546;-70
2023/02/07 02:33:27;;;;;;;3.13;1.58;;;1.70;99.90;;;;;;5050311;28;20068;-66
2023/02/07 02:36:20;;;;;;;3.13;1.05;;;1.80;99.90;;;;;;5039365;28;20464;-72
2023/02/07 02:38:59;;;;;;;3.83;1.45;;;1.80;99.90;;;;;;5030582;28;20134;-65
2023/02/07 02:41:38;;;;;;;4.82;0.88;;;1.70;99.90;;;;;;5044554;28;20052;-72
2023/02/07 02:44:12;;;;;;;2.65;1.17;;;1.80;99.90;;;;;;5035846;28;20483;-66
2023/02/07 02:46:40;;;;;;;2.33;1.05;;;1.70;99.90;;;;;;5041864;28;20298;-68
2023/02/07 02:49:11;;;;;;;3.78;1.67;;;1.70;99.90;;;;;;5037961;28;20812;-69
2023/02/07 02:51:38;;;;;;;2.80;1.15;;;1.80;99.90;;;;;;5040775;28;20140;-65
2023/02/07 02:54:43;;;;;;;1.73;1.17;;;1.70;99.90;;;;;;5036340;28;20410;-68
2023/02/07 02:57:29;;;;;;;3.83;1.27;;;1.70;99.90;;;;;;5046971;28;20065;-68
2023/02/07 03:00:21;;;;;;;2.05;0.90;;;1.70;99.90;;;;;;5038879;28;20084;-67
2023/02/07 03:03:06;;;;;;;5.03;1.42;;;1.70;99.90;;;;;;5035602;28;20053;-66
2023/02/07 03:06:02;;;;;;;6.68;2.05;;;1.60;99.90;;;;;;5042150;28;20106;-68
2023/02/07 03:08:43;;;;;;;4.32;2.55;;;1.60;99.90;;;;;;5041454;28;20033;-69
2023/02/07 03:11:20;;;;;;;3.83;1.55;;;1.60;99.90;;;;;;5041868;28;20140;-68
2023/02/07 03:14:05;;;;;;;3.35;1.30;;;1.50;99.90;;;;;;5043135;28;20053;-66
2023/02/07 03:16:42;;;;;;;1.70;0.93;;;1.50;99.90;;;;;;5045624;28;20520;-72
2023/02/07 03:19:12;;;;;;;6.05;1.65;;;1.50;99.90;;;;;;5043559;28;20049;-66
2023/02/07 03:21:46;;;;;;;4.55;0.95;;;1.40;99.90;;;;;;5046866;28;21312;-68
2023/02/07 03:24:18;;;;;;;6.72;1.27;;;1.40;99.90;;;;;;5041327;28;20044;-71
2023/02/07 03:26:49;;;;;;;2.25;1.55;;;1.40;99.90;;;;;;5042329;28;20044;-64
2023/02/07 03:29:19;;;;;;;1.88;0.93;;;1.40;99.90;;;;;;5043586;28;20147;-65
2023/02/07 03:31:49;;;;;;;2.15;0.88;;;1.30;99.90;;;;;;5042973;28;20059;-68
2023/02/07 03:34:22;;;;;;;2.72;0.80;;;1.40;99.90;;;;;;5047528;28;20767;-69
2023/02/07 03:36:55;;;;;;;2.35;1.23;;;1.40;99.90;;;;;;5045020;28;20532;-69
2023/02/07 03:39:22;;;;;;;7.07;1.40;;;1.40;99.90;;;;;;5045759;28;20080;-64
2023/02/07 03:41:58;;;;;;;3.42;0.82;;;1.40;99.90;;;;;;5045277;28;20052;-70
2023/02/07 03:44:27;;;;;;;3.75;2.20;;;1.40;99.90;;;;;;5042512;28;20057;-65
2023/02/07 03:46:54;;;;;;;4.43;1.50;;;1.40;99.90;;;;;;5045445;28;20606;-65
2023/02/07 03:49:21;;;;;;;4.75;1.40;;;1.40;99.90;;;;;;5043996;28;20080;-69
2023/02/07 03:51:48;;;;;;;4.82;0.98;;;1.40;99.90;;;;;;5041857;28;20913;-69
2023/02/07 03:54:15;;;;;;;3.85;0.80;;;1.50;99.90;;;;;;5043427;28;20052;-64
2023/02/07 03:56:43;;;;;;;2.15;0.90;;;1.50;99.90;;;;;;5045582;28;20060;-64
2023/02/07 03:59:10;;;;;;;5.22;1.10;;;1.50;99.90;;;;;;5046386;28;20138;-67
2023/02/07 04:01:40;;;;;;;2.67;1.10;;;1.50;99.90;;;;;;5044765;28;20063;-65
2023/02/07 04:04:09;;;;;;;5.57;0.90;;;1.50;99.90;;;;;;5041646;28;20140;-67
2023/02/07 04:06:36;;;;;;;3.70;1.30;;;1.60;99.90;;;;;;5046155;28;21349;-66
2023/02/07 04:09:03;;;;;;;4.35;1.10;;;1.60;99.90;;;;;;5043401;28;20057;-67
2023/02/07 04:11:30;;;;;;;5.93;1.65;;;1.60;99.90;;;;;;5041066;28;20059;-69
2023/02/07 04:13:57;;;;;;;3.47;0.80;;;1.60;99.90;;;;;;5040987;28;20075;-66
2023/02/07 04:16:24;;;;;;;4.03;1.17;;;1.60;99.90;;;;;;5041896;28;20045;-64
2023/02/07 04:18:51;;;;;;;5.05;1.27;;;1.60;99.90;;;;;;5041410;28;20056;-66
2023/02/07 04:21:18;;;;;;;2.42;1.30;;;1.70;99.90;;;;;;5044081;28;20103;-69
2023/02/07 04:23:45;;;;;;;4.13;2.08;;;1.70;99.90;;;;;;5040045;28;20061;-65
2023/02/07 04:26:12;;;;;;;6.95;1.02;;;1.60;99.90;;;;;;5043426;28;20060;-66
2023/02/07 04:28:39;;;;;;;4.20;0.82;;;1.60;99.90;;;;;;5045873;28;20056;-68
2023/02/07 04:31:06;;;;;;;3.88;1.20;;;1.60;99.90;;;;;;5043234;28;20080;-68
2023/02/07 04:33:33;;;;;;;4.60;1.00;;;1.70;99.90;;;;;;5041325;28;20053;-63
2023/02/07 04:36:02;;;;;;;6.32;1.42;;;1.70;99.90;;;;;;5038104;28;20074;-64
2023/02/07 04:38:29;;;;;;;7.97;1.40;;;1.70;99.90;;;;;;5041845;28;20495;-63
2023/02/07 04:41:04;;;;;;;3.15;1.65;;;1.60;99.90;;;;;;5043081;28;20076;-66
2023/02/07 04:43:33;;;;;;;4.35;1.40;;;1.60;99.90;;;;;;5041430;28;21210;-68
2023/02/07 04:46:00;;;;;;;6.18;1.95;;;1.60;99.90;;;;;;5039179;28;20059;-64
2023/02/07 04:48:27;;;;;;;5.53;2.97;;;1.60;99.90;;;;;;5042405;28;20067;-66
2023/02/07 04:50:54;;;;;;;3.17;1.30;;;1.60;99.90;;;;;;5044652;28;20056;-71
2023/02/07 04:53:21;;;;;;;3.75;1.13;;;1.60;99.90;;;;;;5041116;28;20045;-71
2023/02/07 04:55:52;;;;;;;3.22;0.85;;;1.60;99.90;;;;;;5041222;28;20057;-70
2023/02/07 04:58:20;;;;;;;3.90;0.90;;;1.60;99.90;;;;;;5044246;28;20048;-67
2023/02/07 05:00:47;;;;;;;5.72;1.98;;;1.60;99.90;;;;;;5042641;28;20245;-64
2023/02/07 05:03:14;;;;;;;3.95;1.20;;;1.60;99.90;;;;;;5040609;28;20062;-68
2023/02/07 05:05:42;;;;;;;2.92;0.75;;;1.70;99.90;;;;;;5045866;28;21035;-68
2023/02/07 05:08:10;;;;;;;3.88;1.33;;;1.70;99.90;;;;;;5040637;28;20045;-69
2023/02/07 05:10:37;;;;;;;3.42;1.20;;;1.70;99.90;;;;;;5044751;28;20059;-68
2023/02/07 05:13:04;;;;;;;4.53;1.00;;;1.80;99.90;;;;;;5041583;28;20498;-69
2023/02/07 05:15:33;;;;;;;6.28;1.23;;;1.70;99.90;;;;;;5043891;28;20730;-69
2023/02/07 05:18:00;;;;;;;6.63;1.50;;;1.70;99.90;;;;;;5037851;28;20180;-67
2023/02/07 05:20:27;;;;;;;2.92;1.50;;;1.80;99.90;;;;;;5043654;28;20052;-69
2023/02/07 05:22:54;;;;;;;4.28;1.52;;;1.70;99.90;;;;;;5041634;28;20053;-71
2023/02/07 05:25:21;;;;;;;2.33;1.33;;;1.80;99.90;;;;;;5040916;28;20106;-68
2023/02/07 05:27:48;;;;;;;3.97;1.10;;;1.80;99.90;;;;;;5036095;28;20049;-68
2023/02/07 05:30:15;;;;;;;5.43;1.20;;;1.80;99.90;;;;;;5043367;28;20143;-66
2023/02/07 05:35:28;;;;;;;4.63;1.63;;;1.80;99.90;;;;;;5043172;28;20048;-67
2023/02/07 05:37:55;;;;;;;8.90;1.30;;;1.80;99.90;;;;;;5039237;28;20053;-65
2023/02/07 05:40:22;;;;;;;4.35;1.73;;;1.80;99.90;;;;;;5041620;28;20041;-66
2023/02/07 05:42:51;;;;;;;6.53;1.60;;;1.80;99.90;;;;;;5040520;28;20064;-70
2023/02/07 05:45:20;;;;;;;7.35;1.52;;;1.80;99.90;;;;;;5041118;28;20478;-68
2023/02/07 05:47:46;;;;;;;7.13;1.75;;;1.70;99.90;;;;;;5044236;28;20048;-66
2023/02/07 05:50:14;;;;;;;6.72;1.75;;;1.70;99.90;;;;;;5042896;28;20758;-65
2023/02/07 05:52:41;;;;;;;5.57;1.08;;;1.70;99.90;;;;;;5044986;28;20052;-66
2023/02/07 05:55:08;;;;;;;3.60;1.23;;;1.70;99.90;;;;;;5043788;28;20063;-70
2023/02/07 05:57:35;;;;;;;4.45;1.05;;;1.70;99.90;;;;;;5041164;28;20059;-68
2023/02/07 06:00:03;;;;;;;5.40;2.42;;;1.60;99.90;;;;;;5041003;28;20051;-67
2023/02/07 06:02:41;;;;;;;7.30;3.00;;;1.60;99.90;;;;;;5041137;28;20053;-66
2023/02/07 06:05:09;;;;;;;;;;;1.50;99.90;;;;;;5039612;28;20052;-67
2023/02/07 06:07:36;;;;;;;5.00;0.77;;;1.60;99.90;;;;;;5041025;28;20302;-65
2023/02/07 06:10:04;;;;;;;7.20;1.70;;;1.60;99.90;;;;;;5041216;28;20494;-65
2023/02/07 06:12:32;;;;;;;3.92;1.17;;;1.60;99.90;;;;;;5043666;28;20055;-68
2023/02/07 06:14:59;;;;;;;4.90;1.77;;;1.50;99.90;;;;;;5045803;28;20045;-67
2023/02/07 06:17:26;;;;;;;11.40;2.28;;;1.50;99.90;;;;;;5042109;28;20040;-64
2023/02/07 06:19:53;;;;;;;9.07;1.65;;;1.50;99.90;;;;;;5041725;28;20041;-64
2023/02/07 06:22:20;;;;;;;9.13;2.10;;;1.50;99.90;;;;;;5042866;28;20095;-65
2023/02/07 06:24:47;;;;;;;5.03;1.88;;;1.50;99.90;;;;;;5042808;28;20041;-65
2023/02/07 06:27:14;;;;;;;5.47;1.63;;;1.50;99.90;;;;;;5043189;28;20640;-67
2023/02/07 06:29:41;;;;;;;9.27;1.85;;;1.50;99.90;;;;;;5040645;28;20045;-65
2023/02/07 06:32:08;;;;;;;4.72;2.38;;;1.50;99.90;;;;;;5041149;28;20048;-64
2023/02/07 06:34:35;;;;;;;7.95;1.55;;;1.50;99.90;;;;;;5041844;28;20045;-66
2023/02/07 06:37:02;;;;;;;4.13;1.80;;;1.50;99.90;;;;;;5040669;28;20059;-66
2023/02/07 06:39:28;;;;;;;1.90;1.10;;;1.50;99.90;;;;;;5041426;28;20053;-65
2023/02/07 06:41:55;;;;;;;6.00;2.10;;;1.50;99.90;;;;;;5043991;28;20048;-68
2023/02/07 06:44:22;;;;;;;10.57;1.98;;;1.50;99.90;;;;;;5045062;28;20724;-65
2023/02/07 06:46:49;;;;;;;3.28;1.30;;;1.50;99.90;;;;;;5047210;28;20052;-68
2023/02/07 06:49:16;;;;;;;6.68;1.38;;;1.50;99.90;;;;;;5046232;28;20044;-70
2023/02/07 06:51:43;;;;;;;8.25;1.63;;;1.50;99.90;;;;;;5045247;28;20513;-65
2023/02/07 06:54:09;;;;;;;7.68;1.23;;;1.50;99.90;;;;;;5042549;28;20057;-66
2023/02/07 06:56:37;;;;;;;3.75;1.15;;;1.40;99.90;;;;;;5043687;28;20413;-66
2023/02/07 06:59:04;;;;;;;5.57;1.95;;;1.40;99.90;;;;;;5046464;28;20129;-65
2023/02/07 07:01:31;;;;;;;6.25;1.67;;;1.40;99.90;;;;;;5045695;28;20447;-68
2023/02/07 07:03:58;;;;;;;8.68;1.67;;;1.40;99.90;;;;;;5047794;28;20047;-70
2023/02/07 07:06:25;;;;;;;5.13;1.27;;;1.40;99.90;;;;;;5029178;28;20050;-67
2023/02/07 07:08:51;;;;;;;5.20;1.40;;;1.40;99.90;;;;;;5050554;28;20144;-65
2023/02/07 07:11:19;;;;;;;2.83;1.33;;;1.40;99.90;;;;;;5044881;28;20318;-67
2023/02/07 07:13:46;;;;;;;7.80;1.90;;;1.40;99.90;;;;;;5057916;28;20047;-66
2023/02/07 07:16:13;;;;;;;9.90;1.15;;;1.40;99.90;;;;;;5063356;28;20605;-65
2023/02/07 07:18:40;;;;;;;6.60;1.50;;;1.40;99.90;;;;;;5061704;28;20083;-65
2023/02/07 07:21:08;;;;;;;7.45;1.73;;;1.40;99.90;;;;;;5064961;28;20044;-65
2023/02/07 07:23:35;;;;;;;9.90;1.70;;;1.40;99.90;;;;;;5064283;28;20041;-68
2023/02/07 07:26:02;;;;;;;5.20;1.35;;;1.30;99.90;;;;;;5062857;28;20048;-67
2023/02/07 07:28:29;;;;;;;9.20;2.60;;;1.40;99.90;;;;;;5061092;28;20474;-69
2023/02/07 07:31:07;;;;;;;4.32;1.40;;;1.40;99.90;;;;;;5064071;28;20128;-69
2023/02/07 07:33:34;;;;;;;8.95;2.70;;;1.40;99.90;;;;;;5063831;28;20052;-66
2023/02/07 07:36:02;;;;;;;2.17;1.98;;;1.40;99.90;;;;;;5063082;28;20050;-65
2023/02/07 07:38:30;;;;;;;5.97;1.63;;;1.50;99.90;;;;;;5063628;28;20048;-66
2023/02/07 07:40:58;;;;;;;5.28;2.35;;;1.60;99.90;;;;;;5060389;28;20137;-65
2023/02/07 07:43:25;;;;;;;1.83;1.13;;;1.60;99.90;;;;;;5058724;28;20059;-68
2023/02/07 07:45:55;;;;;;;3.13;2.03;;;1.60;99.90;;;;;;5057402;28;20049;-65
2023/02/07 07:48:23;;;;;;;6.43;1.33;;;1.50;99.90;;;;;;5043756;28;20079;-64
2023/02/07 07:50:50;;;;;;;6.80;2.15;;;1.60;99.90;;;;;;5062440;28;20087;-67
2023/02/07 07:53:18;;;;;;;9.13;1.52;;;1.60;99.90;;;;;;5062265;28;20036;-65
2023/02/07 07:55:54;;;;;;;3.67;1.50;;;1.60;99.90;;;;;;5057729;28;20048;-65
2023/02/07 07:58:23;;;;;;;6.88;1.50;;;1.60;99.90;;;;;;5059554;28;20056;-68
2023/02/07 08:00:50;;;;;;;3.28;1.88;;;1.60;99.90;;;;;;5064315;28;20048;-69
2023/02/07 08:03:19;;;;;;;6.93;2.67;;;1.60;99.90;;;;;;5064010;28;20495;-65
2023/02/07 08:05:47;;;;;;;13.88;1.73;;;1.60;99.90;;;;;;5060138;28;20037;-66
2023/02/07 08:08:15;;;;;;;9.98;1.92;;;1.60;99.90;;;;;;5061642;28;20066;-64
2023/02/07 08:10:41;;;;;;;3.53;1.52;;;1.60;99.90;;;;;;5062499;28;20382;-66
2023/02/07 08:13:09;;;;;;;5.68;2.90;;;1.60;99.90;;;;;;5060242;28;20058;-65
2023/02/07 08:15:36;;;;;;;3.25;1.17;;;1.60;99.90;;;;;;5064582;28;20554;-68
2023/02/07 08:18:03;;;;;;;4.82;1.70;;;1.70;99.90;;;;;;5064687;28;20062;-65
2023/02/07 08:20:30;;;;;;;6.13;2.22;;;1.70;99.90;;;;;;5064214;28;20402;-67
2023/02/07 08:22:57;;;;;;;8.32;1.52;;;1.70;99.90;;;;;;5063972;28;20131;-69
2023/02/07 08:25:25;;;;;;;2.80;1.75;;;1.60;99.90;;;;;;5063171;28;20060;-64
2023/02/07 08:27:53;;;;;;;3.83;1.30;;;1.50;99.90;;;;;;5063152;28;20058;-66
2023/02/07 08:30:21;;;;;;;4.32;1.60;;;1.40;99.90;;;;;;5060389;28;20083;-65
2023/02/07 08:32:47;;;;;;;11.00;4.57;;;1.40;99.90;;;;;;5061127;28;20406;-64
2023/02/07 08:35:14;;;;;;;8.35;2.75;;;1.40;99.90;;;;;;5059197;28;20153;-65
2023/02/07 08:37:41;;;;;;;6.47;2.17;;;1.40;99.90;;;;;;5057971;28;20148;-66
2023/02/07 08:40:09;;;;;;;4.00;1.70;;;1.40;99.90;;;;;;5062263;28;20052;-65
2023/02/07 08:42:35;;;;;;;4.20;2.13;;;1.40;99.90;;;;;;5058125;28;20048;-66
2023/02/07 08:45:04;;;;;;;5.38;2.40;;;1.40;99.90;;;;;;5056998;28;20163;-68
2023/02/07 08:47:32;;;;;;;3.70;2.03;;;1.40;99.90;;;;;;5064010;28;20048;-66
2023/02/07 08:49:59;;;;;;;4.25;2.50;;;1.50;99.90;;;;;;5060647;28;20060;-66
2023/02/07 08:52:26;;;;;;;4.97;2.10;;;1.50;99.90;;;;;;5061574;28;20063;-65
2023/02/07 08:54:55;;;;;;;5.65;1.95;;;1.50;99.90;;;;;;5060242;28;20421;-65
2023/02/07 08:57:24;;;;;;;5.05;3.47;;;1.60;99.90;;;;;;5056452;28;20055;-69
2023/02/07 08:59:52;;;;;;;4.75;3.13;;;1.60;99.90;;;;;;5060205;28;20044;-66
2023/02/07 09:02:19;;;;;;;5.70;2.78;;;1.60;99.90;;;;;;5053414;28;20461;-65
2023/02/07 09:04:46;;;;;;;3.53;2.13;;;1.70;99.90;;;;;;5059044;28;20043;-64
2023/02/07 09:07:13;;;;;;;10.32;2.35;;;1.70;99.90;;;;;;5058322;28;20052;-66
2023/02/07 09:09:40;;;;;;;4.95;2.28;;;1.70;99.90;;;;;;5056312;28;20067;-66
2023/02/07 09:12:08;;;;;;;8.75;2.17;;;1.70;99.90;;;;;;5060470;28;20068;-65
2023/02/07 09:14:35;;;;;;;3.88;1.85;;;1.70;99.90;;;;;;5060064;28;20045;-65
2023/02/07 09:17:03;;;;;;;15.95;2.45;;;1.80;99.90;;;;;;5058520;28;20051;-66
2023/02/07 09:19:30;;;;;;;9.57;2.50;;;1.90;99.90;;;;;;5060188;28;20048;-65
2023/02/07 09:21:57;;;;;;;7.78;2.65;;;1.90;99.90;;;;;;5059269;28;20060;-64
2023/02/07 09:24:24;;;;;;;7.15;1.58;;;2.00;99.90;;;;;;5061800;28;20135;-68
2023/02/07 09:26:51;;;;;;;4.95;2.03;;;2.10;99.90;;;;;;5062969;28;20057;-65
2023/02/07 09:29:18;;;;;;;5.03;2.72;;;2.10;99.90;;;;;;5062872;28;20052;-65
2023/02/07 09:31:45;;;;;;;5.65;2.08;;;2.10;99.90;;;;;;5057781;28;20044;-65
2023/02/07 09:34:12;;;;;;;10.70;1.73;;;2.10;99.90;;;;;;5059976;28;20051;-66
2023/02/07 09:36:39;;;;;;;8.82;2.17;;;2.10;99.90;;;;;;5060428;28;20048;-67
2023/02/07 09:39:06;;;;;;;8.50;2.15;;;2.10;99.90;;;;;;5057306;28;20399;-66
2023/02/07 09:41:54;;;;;;;5.57;3.17;;;2.10;99.90;;;;;;5061141;28;20047;-65
2023/02/07 09:44:30;;;;;;;6.97;1.80;;;2.00;99.90;;;;;;5057629;28;20056;-65
2023/02/07 09:47:24;;;;;;;4.47;1.92;;;2.00;99.90;;;;;;5059399;28;20446;-68
2023/02/07 09:49:56;;;;;;;9.90;2.28;;;2.00;99.90;;;;;;5050989;28;20063;-67
2023/02/07 09:52:29;;;;;;;5.32;2.05;;;1.90;99.90;;;;;;5060452;28;20049;-66
2023/02/07 09:54:59;;;;;;;2.38;1.30;;;1.90;99.90;;;;;;5062795;28;20051;-65
2023/02/07 09:57:40;;;;;;;6.47;1.40;;;2.00;99.90;;;;;;5060461;28;20047;-65
2023/02/07 10:00:19;;;;;;;9.20;2.15;;;2.00;99.90;;;;;;5058283;28;20048;-66
2023/02/07 10:03:12;;;;;;;7.10;1.60;;;2.00;99.90;;;;;;5058908;28;20049;-69
2023/02/07 10:05:44;;;;;;;6.30;2.30;;;2.00;99.90;;;;;;5059965;28;20056;-68
2023/02/07 10:08:14;;;;;;;7.95;1.70;;;1.90;99.90;;;;;;5061253;28;20055;-64
2023/02/07 10:10:59;;;;;;;3.38;1.70;;;1.80;99.90;;;;;;5059284;28;20059;-66
2023/02/07 10:13:42;;;;;;;5.07;1.90;;;1.80;99.90;;;;;;5062056;28;20495;-65
2023/02/07 10:16:33;;;;;;;8.38;1.42;;;1.80;99.90;;;;;;5074818;28;20036;-66
2023/02/07 10:19:32;;;;;;;1.95;1.80;;;1.80;99.90;;;;;;5061266;28;20047;-66
2023/02/07 10:22:08;;;;;;;6.10;2.05;;;1.70;99.90;;;;;;5060982;28;20044;-66
2023/02/07 10:24:51;;;;;;;3.63;1.80;;;1.60;99.90;;;;;;5061526;28;20067;-65
2023/02/07 10:27:48;;;;;;;2.78;1.27;;;1.50;99.90;;;;;;5053635;28;20060;-66
2023/02/07 10:30:31;;;;;;;3.03;1.58;;;1.40;99.90;;;;;;5021776;28;20044;-66
2023/02/07 10:33:14;;;;;;;3.03;1.48;;;1.30;99.90;;;;;;5058738;28;20050;-67
2023/02/07 10:35:45;;;;;;;1.38;1.25;;;1.30;99.90;;;;;;5062594;28;20072;-65
2023/02/07 10:38:23;;;;;;;3.67;1.50;;;1.20;99.90;;;;;;5058678;28;20053;-65
2023/02/07 10:41:02;;;;;;;4.22;1.90;;;1.10;99.90;;;;;;5057676;28;20131;-66
2023/02/07 10:43:31;;;;;;;5.03;2.22;;;1.10;99.90;;;;;;5061526;28;20479;-67
2023/02/07 10:46:08;;;;;;;5.77;2.67;;;1.00;99.90;;;;;;5057775;28;20134;-65
2023/02/07 10:48:37;;;;;;;3.55;1.60;;;1.00;99.90;;;;;;5055885;28;20285;-67
2023/02/07 10:51:23;;;;;;;3.78;1.80;;;0.90;99.90;;;;;;5058366;28;20048;-69
2023/02/07 10:54:03;;;;;;;11.02;2.50;;;0.90;99.90;;;;;;5057486;28;20135;-64
2023/02/07 10:56:32;;;;;;;4.57;3.17;;;1.00;99.90;;;;;;5058238;28;20140;-65
2023/02/07 10:58:59;;;;;;;3.47;2.72;;;1.00;99.90;;;;;;5062733;28;20139;-64
2023/02/07 11:01:29;;;;;;;1.63;1.52;;;1.10;99.90;;;;;;5059447;28;20094;-65
2023/02/07 11:03:56;;;;;;;3.03;2.13;;;1.10;99.90;;;;;;5062041;28;20577;-66
2023/02/07 11:06:29;;;;;;;3.13;2.38;;;1.10;99.90;;;;;;5059026;28;20128;-65
2023/02/07 11:09:16;;;;;;;11.73;2.55;;;1.10;99.90;;;;;;5060472;28;20160;-66
2023/02/07 11:11:49;;;;;;;5.18;2.72;;;1.20;99.90;;;;;;5055550;28;20049;-68
2023/02/07 11:14:25;;;;;;;3.95;2.15;;;1.10;99.90;;;;;;5058783;28;20049;-68
2023/02/07 11:16:54;;;;;;;4.38;2.28;;;1.20;99.90;;;;;;5062402;28;20098;-65
2023/02/07 11:19:27;;;;;;;4.53;2.15;;;1.20;99.90;;;;;;5060896;28;20087;-65
2023/02/07 11:22:17;;;;;;;3.40;2.08;;;1.30;99.90;;;;;;5060505;28;20059;-65
2023/02/07 11:24:45;;;;;;;5.38;2.63;;;1.30;99.90;;;;;;5060076;28;20045;-66
2023/02/07 11:27:17;;;;;;;5.20;2.45;;;1.30;99.90;;;;;;5065644;28;20063;-65
2023/02/07 11:29:55;;;;;;;3.75;2.25;;;1.30;99.90;;;;;;5061753;28;20088;-65
2023/02/07 11:32:24;;;;;;;5.72;2.28;;;1.30;99.90;;;;;;5061259;28;20075;-66
2023/02/07 11:34:57;;;;;;;3.80;2.70;;;1.30;99.90;;;;;;5061808;28;20091;-65
2023/02/07 11:37:25;;;;;;;3.38;1.90;;;1.20;99.90;;;;;;5058547;28;20132;-64
2023/02/07 11:40:12;;;;;;;2.60;2.35;;;1.20;99.90;;;;;;5058244;28;22645;-65
2023/02/07 11:42:40;;;;;;;6.05;2.75;;;1.20;99.90;;;;;;5058713;28;20139;-66
2023/02/07 11:45:14;;;;;;;4.55;2.58;;;1.20;99.90;;;;;;5061468;28;20041;-65
2023/02/07 11:47:44;;;;;;;6.53;2.75;;;1.20;99.90;;;;;;5059510;28;20132;-64
2023/02/07 11:50:20;;;;;;;9.07;3.13;;;1.20;99.90;;;;;;5062631;28;20048;-64
2023/02/07 11:52:53;;;;;;;8.02;2.67;;;1.30;99.90;;;;;;5059016;28;20049;-68
2023/02/07 11:55:40;;;;;;;5.15;2.53;;;1.30;99.90;;;;;;5063178;28;20148;-64
2023/02/07 11:58:21;;;;;;;4.95;2.67;;;1.30;99.90;;;;;;5057691;28;20064;-64
2023/02/07 12:00:48;;;;;;;6.63;2.72;;;1.30;99.90;;;;;;5063470;28;20445;-64
2023/02/07 12:03:25;;;;;;;4.53;3.70;;;1.30;99.90;;;;;;5065221;28;20048;-67
2023/02/07 12:05:58;;;;;;;4.82;3.17;;;1.30;99.90;;;;;;5060782;28;20130;-68
2023/02/07 12:08:29;;;;;;;2.58;1.95;;;1.20;99.90;;;;;;5059174;28;20049;-65
2023/02/07 12:11:01;;;;;;;4.32;2.90;;;1.30;99.90;;;;;;5063875;28;20155;-68
2023/02/07 12:13:57;;;;;;;5.25;2.95;;;1.20;99.90;;;;;;5061289;28;20474;-65
2023/02/07 12:16:33;;;;;;;2.38;2.17;;;1.20;99.90;;;;;;5047961;28;20074;-63
2023/02/07 12:19:26;;;;;;;2.28;1.98;;;1.20;99.90;;;;;;5058998;28;20040;-65
2023/02/07 12:22:14;;;;;;;4.22;2.92;;;1.10;99.90;;;;;;5058319;28;20183;-64
2023/02/07 12:24:54;;;;;;;4.82;2.85;;;1.10;99.90;;;;;;5058307;28;20394;-64
2023/02/07 12:27:28;;;;;;;3.13;2.30;;;1.10;99.90;;;;;;5062871;28;20452;-63
2023/02/07 12:30:16;;;;;;;4.53;2.88;;;1.00;99.90;;;;;;5062163;28;20047;-63
2023/02/07 12:32:52;;;;;;;3.22;2.20;;;1.00;99.90;;;;;;5064842;28;20059;-69
2023/02/07 12:35:40;;;;;;;4.68;2.70;;;1.00;99.90;;;;;;5060993;28;20044;-64
2023/02/07 12:39:01;;;;;;;7.22;3.17;;;1.00;99.90;;;;;;5057902;28;20056;-68
2023/02/07 12:41:36;;;;;;;4.50;3.67;;;1.00;99.90;;;;;;5054058;28;20078;-65
2023/02/07 12:44:29;;;;;;;5.53;3.50;;;1.00;99.90;;;;;;5059299;28;20083;-63
2023/02/07 12:47:20;;;;;;;5.60;3.13;;;0.90;99.90;;;;;;5058427;28;20463;-64
2023/02/07 12:50:05;;;;;;;6.40;3.65;;;0.90;99.90;;;;;;5059712;28;20048;-64
2023/02/07 12:52:47;;;;;;;5.35;3.33;;;0.90;99.90;;;;;;5063026;28;20048;-64
2023/02/07 12:55:35;;;;;;;7.57;3.47;;;0.90;99.90;;;;;;5059374;28;20051;-64
2023/02/07 12:58:11;;;;;;;7.15;4.10;;;0.90;99.90;;;;;;5059499;28;20449;-64
2023/02/07 13:01:16;;;;;;;6.75;4.47;;;0.90;99.90;;;;;;5057303;28;20071;-65
2023/02/07 13:04:18;;;;;;;4.38;3.97;;;0.90;99.90;;;;;;5056707;28;20084;-64
2023/02/07 13:07:11;;;;;;;6.43;3.78;;;0.90;99.90;;;;;;5059543;28;20126;-65
2023/02/07 13:09:46;;;;;;;7.20;4.00;;;0.90;99.90;;;;;;5059858;28;20047;-65
2023/02/07 13:12:18;;;;;;;4.00;3.50;;;0.90;99.90;;;;;;5057823;28;20054;-66
2023/02/07 13:15:13;;;;;;;5.88;3.78;;;0.90;99.90;;;;;;5061523;28;20045;-69
2023/02/07 13:18:08;;;;;;;5.10;3.67;;;0.90;99.90;;;;;;5057959;28;20114;-64
2023/02/07 13:20:52;;;;;;;6.15;4.50;;;0.90;99.90;;;;;;5060924;28;20064;-64
2023/02/07 13:23:25;;;;;;;6.97;4.72;;;0.90;99.90;;;;;;5057206;28;20044;-65
2023/02/07 13:25:57;;;;;;;8.35;4.72;;;0.90;99.90;;;;;;5056941;28;20486;-63